Time;durP1;ratioP1;P1;durP2;ratioP2;P2;SDS_P1;SDS_P2;PMS_P1;PMS_P2;Temp;Humidity;BMP_temperature;BMP_pressure;BME280_temperature;BME280_humidity;BME280_pressure;Samples;Min_cycle;Max_cycle;Signal;HPM_P1;HPM_P2
2021/03/09 00:00:28;;;;;;;;;;;;;;;-3.32;100.00;95893.09;1033496;28;19918;-64
2021/03/09 00:00:58;;;;;;;;;;;;;;;-3.27;100.00;95905.41;1035184;28;19917;-63
2021/03/09 00:01:28;;;;;;;;;;;;;;;-3.23;100.00;95893.81;1031426;28;20481;-63
2021/03/09 00:01:59;;;;;;;;;;;;;;;-3.21;100.00;95898.81;1033097;28;19972;-63
2021/03/09 00:02:29;;;;;;;;;;;;;;;-3.16;100.00;95905.00;1027042;28;19977;-64
2021/03/09 00:02:59;;;;;;;;;;;;;;;-3.10;100.00;95899.16;1027087;28;20355;-62
2021/03/09 00:03:30;;;;;;;;;;;;;;;-3.05;100.00;95908.13;1026943;28;19985;-62
2021/03/09 00:04:00;;;;;;;;;;;;;;;-3.06;100.00;95899.63;1031288;28;19917;-62
2021/03/09 00:04:30;;;;;;;;;;;;;;;-3.05;100.00;95897.84;1027090;28;20384;-62
2021/03/09 00:05:01;;;;;;;;;;;;;;;-3.04;100.00;95890.00;1027157;28;19921;-64
2021/03/09 00:05:31;;;;;;;;;;;;;;;-3.08;100.00;95894.69;1027062;28;19918;-62
2021/03/09 00:06:01;;;;;;;;;;;;;;;-3.06;100.00;95898.81;1027243;28;19914;-63
2021/03/09 00:06:31;;;;;;;;;;;;;;;-3.04;100.00;95891.75;1027122;28;19918;-62
2021/03/09 00:07:02;;;;;;;;;;;;;;;-3.09;100.00;95897.41;1028172;28;20689;-63
2021/03/09 00:07:32;;;;;;;;;;;;;;;-3.09;100.00;95892.25;1031316;28;20036;-61
2021/03/09 00:08:03;;;;;;;;;;;;;;;-3.09;100.00;95885.34;1027319;28;19954;-62
2021/03/09 00:08:33;;;;;;;;;;;;;;;-3.08;100.00;95896.44;1023112;28;19919;-65
2021/03/09 00:09:03;;;;;;;;;;;;;;;-3.08;100.00;95881.03;1025474;28;19918;-62
2021/03/09 00:09:33;;;;;;;;;;;;;;;-3.08;100.00;95889.53;1018527;29;19996;-62
2021/03/09 00:10:04;;;;;;;;;;;;;;;-3.06;100.00;95898.81;1023376;28;19915;-62
2021/03/09 00:10:35;;;;;;;;;;;;;;;-3.09;100.00;95890.50;1026263;28;20009;-63
2021/03/09 00:11:05;;;;;;;;;;;;;;;-3.10;100.00;95896.59;1027180;28;19969;-62
2021/03/09 00:11:35;;;;;;;;;;;;;;;-3.10;100.00;95901.72;1031203;28;19972;-62
2021/03/09 00:12:06;;;;;;;;;;;;;;;-3.14;100.00;95895.34;1026981;28;20022;-62
2021/03/09 00:12:36;;;;;;;;;;;;;;;-3.15;100.00;95893.78;1027271;28;19910;-63
2021/03/09 00:13:06;;;;;;;;;;;;;;;-3.15;100.00;95896.34;1027170;28;19914;-63
2021/03/09 00:13:37;;;;;;;;;;;;;;;-3.17;100.00;95895.69;1027229;28;19918;-62
2021/03/09 00:14:07;;;;;;;;;;;;;;;-3.19;100.00;95891.72;1030938;28;19918;-63
2021/03/09 00:14:37;;;;;;;;;;;;;;;-3.18;100.00;95890.75;1027542;28;19957;-62
2021/03/09 00:15:08;;;;;;;;;;;;;;;-3.18;100.00;95888.97;1027141;28;19918;-63
2021/03/09 00:15:38;;;;;;;;;;;;;;;-3.17;100.00;95887.22;1031615;28;20039;-63
2021/03/09 00:16:08;;;;;;;;;;;;;;;-3.22;100.00;95892.06;1035396;28;19920;-63
2021/03/09 00:16:39;;;;;;;;;;;;;;;-3.19;100.00;95884.81;1035229;28;19910;-62
2021/03/09 00:17:09;;;;;;;;;;;;;;;-3.16;100.00;95886.22;1035331;28;20393;-62
2021/03/09 00:17:39;;;;;;;;;;;;;;;-3.16;100.00;95892.16;1035111;28;20352;-62
2021/03/09 00:18:10;;;;;;;;;;;;;;;-3.16;100.00;95888.78;1035322;28;19917;-62
2021/03/09 00:18:40;;;;;;;;;;;;;;;-3.16;100.00;95886.22;1031191;28;19980;-62
2021/03/09 00:19:11;;;;;;;;;;;;;;;-3.19;100.00;95884.81;1023988;28;20384;-62
2021/03/09 00:19:41;;;;;;;;;;;;;;;-3.19;100.00;95889.94;1023229;29;20561;-64
2021/03/09 00:20:12;;;;;;;;;;;;;;;-3.18;100.00;95893.31;1023314;28;19918;-62
2021/03/09 00:20:42;;;;;;;;;;;;;;;-3.22;100.00;95886.91;1030182;28;20468;-63
2021/03/09 00:21:12;;;;;;;;;;;;;;;-3.20;100.00;95890.13;1035055;28;19933;-62
2021/03/09 00:21:43;;;;;;;;;;;;;;;-3.25;100.00;95887.25;1035610;28;19925;-62
2021/03/09 00:22:13;;;;;;;;;;;;;;;-3.24;100.00;95886.31;1034317;28;20434;-63
2021/03/09 00:22:43;;;;;;;;;;;;;;;-3.26;100.00;95883.09;1027549;28;19929;-62
2021/03/09 00:23:13;;;;;;;;;;;;;;;-3.29;100.00;95884.25;1027112;28;19926;-61
2021/03/09 00:23:44;;;;;;;;;;;;;;;-3.30;100.00;95887.00;1027283;28;20013;-62
2021/03/09 00:24:14;;;;;;;;;;;;;;;-3.27;100.00;95887.44;1026564;28;19918;-63
2021/03/09 00:24:44;;;;;;;;;;;;;;;-3.27;100.00;95884.09;1028343;28;19984;-63
2021/03/09 00:25:15;;;;;;;;;;;;;;;-3.30;100.00;95881.88;1027509;28;19922;-63
2021/03/09 00:25:45;;;;;;;;;;;;;;;-3.30;100.00;95880.09;1030336;28;19988;-62
2021/03/09 00:26:15;;;;;;;;;;;;;;;-3.29;100.00;95880.88;1035119;28;19929;-62
2021/03/09 00:26:45;;;;;;;;;;;;;;;-3.30;100.00;95882.66;1035274;28;19955;-62
2021/03/09 00:27:16;;;;;;;;;;;;;;;-3.28;100.00;95882.50;1035039;28;19922;-61
2021/03/09 00:27:46;;;;;;;;;;;;;;;-3.28;100.00;95882.50;1027902;28;19961;-62
2021/03/09 00:28:19;;;;;;;;;;;;;;;-3.31;100.00;95888.78;1027230;28;20383;-62
2021/03/09 00:28:50;;;;;;;;;;;;;;;-3.27;100.00;95884.88;1027204;28;19925;-62
2021/03/09 00:29:20;;;;;;;;;;;;;;;-3.31;100.00;95881.06;1029108;28;20335;-63
2021/03/09 00:29:50;;;;;;;;;;;;;;;-3.30;100.00;95884.44;1035102;28;19921;-62
2021/03/09 00:30:21;;;;;;;;;;;;;;;-3.32;100.00;95887.16;1035254;28;19960;-63
2021/03/09 00:30:51;;;;;;;;;;;;;;;-3.34;100.00;95889.09;1029518;28;19930;-64
2021/03/09 00:31:21;;;;;;;;;;;;;;;-3.37;100.00;95886.88;1027112;28;19922;-65
2021/03/09 00:31:52;;;;;;;;;;;;;;;-3.39;100.00;95886.25;1027117;28;19957;-62
2021/03/09 00:32:22;;;;;;;;;;;;;;;-3.39;100.00;95881.91;1023150;29;19962;-62
2021/03/09 00:32:52;;;;;;;;;;;;;;;-3.38;100.00;95882.72;1033185;28;20355;-63
2021/03/09 00:33:22;;;;;;;;;;;;;;;-3.38;100.00;95890.44;1035426;28;20598;-62
2021/03/09 00:33:53;;;;;;;;;;;;;;;-3.44;100.00;95886.78;1031143;28;19975;-63
2021/03/09 00:34:23;;;;;;;;;;;;;;;-3.46;100.00;95890.47;1033452;28;20311;-64
2021/03/09 00:34:53;;;;;;;;;;;;;;;-3.50;100.00;95890.00;1027055;28;19925;-63
2021/03/09 00:35:24;;;;;;;;;;;;;;;-3.50;100.00;95884.88;1019199;29;19915;-63
2021/03/09 00:35:54;;;;;;;;;;;;;;;-3.51;100.00;95892.75;1015082;29;20005;-64
2021/03/09 00:36:24;;;;;;;;;;;;;;;-3.54;100.00;95893.09;1019290;29;19921;-63
2021/03/09 00:36:55;;;;;;;;;;;;;;;-3.56;100.00;95893.25;1023090;28;19926;-62
2021/03/09 00:37:25;;;;;;;;;;;;;;;-3.57;100.00;95891.66;1031059;28;20526;-63
2021/03/09 00:37:55;;;;;;;;;;;;;;;-3.77;100.00;95857.97;1026363;28;19919;-63
2021/03/09 00:38:26;;;;;;;;;;;;;;;-3.54;100.00;95893.09;1031164;28;19917;-62
2021/03/09 00:38:56;;;;;;;;;;;;;;;-3.59;100.00;95891.84;1031029;28;20383;-62
2021/03/09 00:39:26;;;;;;;;;;;;;;;-3.61;100.00;95900.69;1029890;28;19916;-62
2021/03/09 00:39:57;;;;;;;;;;;;;;;-3.61;100.00;95887.84;1027470;28;19918;-64
2021/03/09 00:40:27;;;;;;;;;;;;;;;-3.62;100.00;95886.25;1029084;28;20023;-62
2021/03/09 00:40:57;;;;;;;;;;;;;;;-3.63;100.00;95890.56;1031377;28;19914;-62
2021/03/09 00:41:27;;;;;;;;;;;;;;;-3.59;100.00;95884.16;1026924;28;19914;-63
2021/03/09 00:41:58;;;;;;;;;;;;;;;-3.61;100.00;95880.16;1023203;29;19993;-63
2021/03/09 00:42:28;;;;;;;;;;;;;;;-3.60;100.00;95885.09;1019419;29;19915;-62
2021/03/09 00:42:58;;;;;;;;;;;;;;;-3.59;100.00;95886.72;1025025;28;20022;-63
2021/03/09 00:43:29;;;;;;;;;;;;;;;-3.64;100.00;95888.97;1027363;28;19918;-63
2021/03/09 00:43:59;;;;;;;;;;;;;;;-3.63;100.00;95885.44;1031408;28;20611;-63
2021/03/09 00:44:29;;;;;;;;;;;;;;;-3.63;100.00;95882.88;1034825;28;19913;-63
2021/03/09 00:45:00;;;;;;;;;;;;;;;-3.64;100.00;95880.50;1035264;28;20418;-63
2021/03/09 00:45:30;;;;;;;;;;;;;;;-3.66;100.00;95875.53;1035435;28;19921;-63
2021/03/09 00:46:00;;;;;;;;;;;;;;;-3.64;100.00;95881.28;1035146;28;19929;-63
2021/03/09 00:46:30;;;;;;;;;;;;;;;-3.65;100.00;95882.28;1027443;28;19918;-63
2021/03/09 00:47:01;;;;;;;;;;;;;;;-3.64;100.00;95888.19;1031081;28;20405;-62
2021/03/09 00:47:31;;;;;;;;;;;;;;;-3.64;100.00;95877.94;1027119;28;19930;-62
2021/03/09 00:48:01;;;;;;;;;;;;;;;-3.67;100.00;95873.16;1026989;28;19965;-64
2021/03/09 00:48:38;;;;;;;;;;;;;;;-3.67;100.00;95879.06;1027097;28;19954;-62
2021/03/09 00:49:08;;;;;;;;;;;;;;;-3.69;100.00;95875.91;1024122;28;20087;-63
2021/03/09 00:49:39;;;;;;;;;;;;;;;-3.70;100.00;95881.19;1026968;28;19987;-63
2021/03/09 00:50:09;;;;;;;;;;;;;;;-3.72;100.00;95878.78;1027249;28;19918;-63
2021/03/09 00:50:39;;;;;;;;;;;;;;;-3.75;100.00;95870.66;1022246;28;19926;-62
2021/03/09 00:51:10;;;;;;;;;;;;;;;-3.79;100.00;95875.28;1027157;28;20685;-63
2021/03/09 00:51:40;;;;;;;;;;;;;;;-3.82;100.00;95871.31;1027063;28;19929;-63
2021/03/09 00:52:10;;;;;;;;;;;;;;;-3.81;100.00;95878.03;1023353;28;19970;-62
2021/03/09 00:52:41;;;;;;;;;;;;;;;-3.83;100.00;95874.03;1019003;29;19926;-63
2021/03/09 00:53:11;;;;;;;;;;;;;;;-3.85;100.00;95870.88;1023059;28;19919;-63
2021/03/09 00:53:41;;;;;;;;;;;;;;;-3.81;100.00;95877.25;1023232;29;19954;-63
2021/03/09 00:54:11;;;;;;;;;;;;;;;-3.81;100.00;95872.13;1026079;28;20603;-63
2021/03/09 00:54:42;;;;;;;;;;;;;;;-3.82;100.00;95875.66;1031237;28;20325;-62
2021/03/09 00:55:12;;;;;;;;;;;;;;;-3.82;100.00;95871.31;1031440;28;19918;-62
2021/03/09 00:55:43;;;;;;;;;;;;;;;-3.76;100.00;95871.59;1030576;28;19918;-62
2021/03/09 00:56:13;;;;;;;;;;;;;;;-3.77;100.00;95868.25;1031180;28;19929;-62
2021/03/09 00:56:43;;;;;;;;;;;;;;;-3.72;100.00;95870.28;1030782;28;19976;-63
2021/03/09 00:57:13;;;;;;;;;;;;;;;-3.70;100.00;95869.16;1031217;28;20463;-62
2021/03/09 00:57:52;;;;;;;;;;;;;;;-3.75;100.00;95874.00;1035189;28;19925;-63
2021/03/09 00:58:23;;;;;;;;;;;;;;;-3.70;100.00;95869.16;1027968;28;20284;-62
2021/03/09 00:58:53;;;;;;;;;;;;;;;-3.70;100.00;95874.28;1019911;29;19973;-62
2021/03/09 00:59:23;;;;;;;;;;;;;;;-3.70;100.00;95870.91;1020039;29;19919;-63
2021/03/09 00:59:53;;;;;;;;;;;;;;;-3.71;100.00;95862.44;1022949;29;19974;-62
2021/03/09 01:00:24;;;;;;;;;;;;;;;-3.72;100.00;95865.97;1026766;28;19925;-61
2021/03/09 01:00:55;;;;;;;;;;;;;;;-3.72;100.00;95863.41;1033109;28;20283;-63
2021/03/09 01:01:25;;;;;;;;;;;;;;;-3.74;100.00;95865.34;1034942;28;20295;-62
2021/03/09 01:01:55;;;;;;;;;;;;;;;-3.77;100.00;95863.09;1027195;28;19918;-63
2021/03/09 01:02:26;;;;;;;;;;;;;;;-3.80;100.00;95858.31;1027667;28;20415;-62
2021/03/09 01:02:56;;;;;;;;;;;;;;;-3.80;100.00;95863.44;1031040;28;19922;-62
2021/03/09 01:03:26;;;;;;;;;;;;;;;-3.77;100.00;95865.69;1028319;28;19968;-64
2021/03/09 01:03:56;;;;;;;;;;;;;;;-3.81;100.00;95862.66;1031179;28;19945;-63
2021/03/09 01:04:27;;;;;;;;;;;;;;;-3.80;100.00;95860.88;1034773;28;19917;-62
2021/03/09 01:04:57;;;;;;;;;;;;;;;-3.79;100.00;95859.91;1033640;28;19987;-62
2021/03/09 01:05:27;;;;;;;;;;;;;;;-3.77;100.00;95855.41;1031150;28;19910;-62
2021/03/09 01:05:58;;;;;;;;;;;;;;;-3.80;100.00;95863.44;1028792;28;20494;-62
2021/03/09 01:06:28;;;;;;;;;;;;;;;-3.82;100.00;95860.28;1031060;28;19928;-63
2021/03/09 01:06:58;;;;;;;;;;;;;;;-4.05;100.00;95834.63;1022924;28;19922;-63
2021/03/09 01:07:28;;;;;;;;;;;;;;;-3.85;100.00;95861.41;1022721;28;19918;-62
2021/03/09 01:07:59;;;;;;;;;;;;;;;-3.84;100.00;95862.19;1026981;28;19926;-62
2021/03/09 01:08:29;;;;;;;;;;;;;;;-3.84;100.00;95859.63;1027154;28;20478;-63
2021/03/09 01:08:59;;;;;;;;;;;;;;;-3.77;100.00;95859.75;1030778;28;20024;-64
2021/03/09 01:09:30;;;;;;;;;;;;;;;-3.81;100.00;95856.75;1030718;28;19921;-62
2021/03/09 01:10:00;;;;;;;;;;;;;;;-3.78;100.00;95856.41;1031025;28;19965;-63
2021/03/09 01:10:30;;;;;;;;;;;;;;;-3.73;100.00;95859.22;1026674;28;19918;-62
2021/03/09 01:11:01;;;;;;;;;;;;;;;-3.72;100.00;95860.84;1026392;28;19929;-62
2021/03/09 01:11:31;;;;;;;;;;;;;;;-3.75;100.00;95856.06;1027005;28;19968;-62
2021/03/09 01:12:01;;;;;;;;;;;;;;;-3.75;100.00;95850.94;1031037;28;19964;-63
2021/03/09 01:12:31;;;;;;;;;;;;;;;-3.76;100.00;95856.22;1030879;28;20527;-61
2021/03/09 01:13:02;;;;;;;;;;;;;;;-3.78;100.00;95855.59;1026932;28;20489;-63
2021/03/09 01:13:32;;;;;;;;;;;;;;;-3.76;100.00;95856.22;1018965;29;20333;-63
2021/03/09 01:14:03;;;;;;;;;;;;;;;-3.77;100.00;95857.97;1019285;29;19950;-63
2021/03/09 01:14:33;;;;;;;;;;;;;;;-3.78;100.00;95853.84;1022756;28;19953;-62
2021/03/09 01:15:04;;;;;;;;;;;;;;;-3.82;100.00;95855.16;1026857;28;19925;-62
2021/03/09 01:15:34;;;;;;;;;;;;;;;-3.80;100.00;95853.19;1022984;28;20648;-62
2021/03/09 01:16:05;;;;;;;;;;;;;;;-3.79;100.00;95854.78;1026678;28;19922;-62
2021/03/09 01:16:35;;;;;;;;;;;;;;;-3.81;100.00;95851.59;1027037;28;19921;-63
2021/03/09 01:17:05;;;;;;;;;;;;;;;-3.82;100.00;95853.38;1022905;28;19922;-63
2021/03/09 01:17:36;;;;;;;;;;;;;;;-3.84;100.00;95857.06;1026825;28;19926;-63
2021/03/09 01:18:06;;;;;;;;;;;;;;;-3.83;100.00;95853.53;1019279;29;19911;-63
2021/03/09 01:18:36;;;;;;;;;;;;;;;-3.86;100.00;95857.22;1020603;28;19910;-63
2021/03/09 01:19:06;;;;;;;;;;;;;;;-3.88;100.00;95853.25;1026823;28;19914;-63
2021/03/09 01:19:37;;;;;;;;;;;;;;;-3.89;100.00;95856.78;1026230;28;19922;-62
2021/03/09 01:20:07;;;;;;;;;;;;;;;-3.92;100.00;95852.81;1031018;28;19956;-62
2021/03/09 01:20:38;;;;;;;;;;;;;;;-3.93;100.00;95852.94;1030250;28;19985;-62
2021/03/09 01:21:08;;;;;;;;;;;;;;;-3.92;100.00;95857.94;1031123;28;20009;-62
2021/03/09 01:21:38;;;;;;;;;;;;;;;-3.91;100.00;95853.59;1031305;28;19918;-61
2021/03/09 01:22:09;;;;;;;;;;;;;;;-3.94;100.00;95851.38;1031783;28;19917;-63
2021/03/09 01:22:39;;;;;;;;;;;;;;;-3.97;100.00;95855.06;1031526;28;20291;-63
2021/03/09 01:23:09;;;;;;;;;;;;;;;-3.97;100.00;95852.50;1022788;28;20299;-62
2021/03/09 01:23:40;;;;;;;;;;;;;;;-3.99;100.00;95851.06;1024116;28;20408;-62
2021/03/09 01:24:10;;;;;;;;;;;;;;;-3.99;100.00;95854.44;1023202;29;19914;-63
2021/03/09 01:24:40;;;;;;;;;;;;;;;-3.99;100.00;95851.06;1023002;28;19918;-62
2021/03/09 01:25:10;;;;;;;;;;;;;;;-3.97;100.00;95854.25;1023163;29;19923;-64
2021/03/09 01:25:41;;;;;;;;;;;;;;;-3.92;100.00;95857.94;1023001;28;19915;-62
2021/03/09 01:26:11;;;;;;;;;;;;;;;-3.93;100.00;95847.81;1027069;28;19910;-62
2021/03/09 01:26:41;;;;;;;;;;;;;;;-3.93;100.00;95845.25;1022782;28;19914;-62
2021/03/09 01:27:12;;;;;;;;;;;;;;;-3.85;100.00;95850.34;1027020;28;20348;-65
2021/03/09 01:27:42;;;;;;;;;;;;;;;-3.82;100.00;95850.03;1026765;28;19914;-63
2021/03/09 01:28:12;;;;;;;;;;;;;;;-3.82;100.00;95845.69;1026954;28;19921;-63
2021/03/09 01:28:43;;;;;;;;;;;;;;;-3.80;100.00;95848.06;1027431;28;19918;-63
2021/03/09 01:29:13;;;;;;;;;;;;;;;-3.84;100.00;95851.94;1027684;28;19914;-62
2021/03/09 01:29:43;;;;;;;;;;;;;;;-3.82;100.00;95850.03;1035140;28;19924;-65
2021/03/09 01:30:14;;;;;;;;;;;;;;;-3.78;100.00;95842.78;1030785;28;20022;-61
2021/03/09 01:30:44;;;;;;;;;;;;;;;-3.76;100.00;95840.84;1030596;28;20389;-62
2021/03/09 01:31:14;;;;;;;;;;;;;;;-3.77;100.00;95852.06;1030603;28;20299;-61
2021/03/09 01:31:45;;;;;;;;;;;;;;;-3.77;100.00;95846.94;1027215;28;20004;-63
2021/03/09 01:32:15;;;;;;;;;;;;;;;-3.73;100.00;95841.28;1030800;28;19914;-63
2021/03/09 01:32:45;;;;;;;;;;;;;;;-3.74;100.00;95844.81;1026061;28;20525;-63
2021/03/09 01:33:16;;;;;;;;;;;;;;;-3.77;100.00;95845.16;1019029;29;19914;-62
2021/03/09 01:33:46;;;;;;;;;;;;;;;-3.78;100.00;95841.00;1019189;29;19911;-62
2021/03/09 01:34:17;;;;;;;;;;;;;;;-3.83;100.00;95840.72;1019673;28;19915;-62
2021/03/09 01:34:47;;;;;;;;;;;;;;;-3.88;100.00;95840.44;1027029;28;19942;-62
2021/03/09 01:35:18;;;;;;;;;;;;;;;-3.91;100.00;95840.78;1022784;29;19939;-63
2021/03/09 01:35:48;;;;;;;;;;;;;;;-3.92;100.00;95834.84;1023071;29;19919;-62
2021/03/09 01:36:18;;;;;;;;;;;;;;;-3.94;100.00;95828.31;1027617;28;19965;-62
2021/03/09 01:36:48;;;;;;;;;;;;;;;-3.95;100.00;95834.41;1027121;28;20413;-62
2021/03/09 01:37:19;;;;;;;;;;;;;;;-3.96;100.00;95828.44;1034985;28;19939;-62
2021/03/09 01:37:49;;;;;;;;;;;;;;;-3.99;100.00;95828.00;1030921;28;20468;-61
2021/03/09 01:38:19;;;;;;;;;;;;;;;-4.00;100.00;95832.31;1030519;28;20404;-62
2021/03/09 01:38:50;;;;;;;;;;;;;;;-4.01;100.00;95824.81;1035016;28;19921;-62
2021/03/09 01:39:20;;;;;;;;;;;;;;;-4.03;100.00;95827.53;1030845;28;20378;-62
2021/03/09 01:39:50;;;;;;;;;;;;;;;-4.07;100.00;95821.16;1033860;28;19922;-62
2021/03/09 01:40:21;;;;;;;;;;;;;;;-4.09;100.00;95829.03;1030654;28;19918;-62
2021/03/09 01:40:51;;;;;;;;;;;;;;;-4.09;100.00;95823.91;1030343;28;20661;-62
2021/03/09 01:41:21;;;;;;;;;;;;;;;-4.13;100.00;95825.19;1027606;28;20004;-62
2021/03/09 01:41:52;;;;;;;;;;;;;;;-4.15;100.00;95822.03;1022933;28;19923;-62
2021/03/09 01:42:22;;;;;;;;;;;;;;;-4.13;100.00;95824.41;1026630;28;19922;-61
2021/03/09 01:42:52;;;;;;;;;;;;;;;-4.15;100.00;95823.78;1026908;28;19915;-62
2021/03/09 01:43:23;;;;;;;;;;;;;;;-4.18;100.00;95822.34;1030746;28;19910;-62
2021/03/09 01:43:53;;;;;;;;;;;;;;;-4.15;100.00;95824.56;1023600;28;19936;-62
2021/03/09 01:44:24;;;;;;;;;;;;;;;-4.13;100.00;95822.63;1023168;29;20434;-62
2021/03/09 01:44:54;;;;;;;;;;;;;;;-4.12;100.00;95824.25;1018823;28;19954;-62
2021/03/09 01:45:25;;;;;;;;;;;;;;;-4.10;100.00;95817.16;1019341;28;19915;-62
2021/03/09 01:45:55;;;;;;;;;;;;;;;-4.11;100.00;95825.84;1027040;28;20469;-64
2021/03/09 01:46:25;;;;;;;;;;;;;;;-4.14;100.00;95825.38;1028224;28;19929;-63
2021/03/09 01:46:59;;;;;;;;;;;;;;;-4.13;100.00;95825.19;1026922;28;19937;-62
2021/03/09 01:47:30;;;;;;;;;;;;;;;-4.15;100.00;95824.56;1026995;28;20004;-64
2021/03/09 01:48:01;;;;;;;;;;;;;;;-4.09;100.00;95818.78;1024455;28;19914;-62
2021/03/09 01:48:33;;;;;;;;;;;;;;;-4.05;100.00;95825.16;1027082;28;19914;-62
2021/03/09 01:49:04;;;;;;;;;;;;;;;-4.04;100.00;95821.63;1025796;28;20021;-63
2021/03/09 01:49:35;;;;;;;;;;;;;;;-4.05;100.00;95825.16;1023222;28;19921;-62
2021/03/09 01:50:06;;;;;;;;;;;;;;;-4.02;100.00;95813.78;1019035;29;20399;-62
2021/03/09 01:50:36;;;;;;;;;;;;;;;-4.02;100.00;95818.91;1018284;29;19967;-62
2021/03/09 01:51:07;;;;;;;;;;;;;;;-3.98;100.00;95816.81;1018954;29;20050;-62
2021/03/09 01:51:37;;;;;;;;;;;;;;;-3.96;100.00;95813.06;1019170;28;20378;-61
2021/03/09 01:52:08;;;;;;;;;;;;;;;-3.97;100.00;95820.94;1026961;28;20017;-63
2021/03/09 01:52:39;;;;;;;;;;;;;;;-3.98;100.00;95815.03;1027210;28;19914;-62
2021/03/09 01:53:09;;;;;;;;;;;;;;;-4.03;100.00;95812.97;1026708;28;19907;-63
2021/03/09 01:53:40;;;;;;;;;;;;;;;-4.06;100.00;95813.31;1026967;28;19914;-63
2021/03/09 01:54:10;;;;;;;;;;;;;;;-4.04;100.00;95813.94;1015838;29;20319;-62
2021/03/09 01:54:41;;;;;;;;;;;;;;;-4.01;100.00;95819.69;1019815;28;20013;-63
2021/03/09 01:55:11;;;;;;;;;;;;;;;-4.01;100.00;95814.56;1022888;29;20411;-63
2021/03/09 01:55:41;;;;;;;;;;;;;;;-4.02;100.00;95811.22;1019055;28;20308;-63
2021/03/09 01:56:12;;;;;;;;;;;;;;;-3.99;100.00;95818.56;1024664;28;19914;-63
2021/03/09 01:56:42;;;;;;;;;;;;;;;-3.98;100.00;95807.34;1021160;28;19915;-60
2021/03/09 01:57:13;;;;;;;;;;;;;;;-3.92;100.00;95813.56;1024362;28;19925;-62
2021/03/09 01:57:43;;;;;;;;;;;;;;;-3.91;100.00;95807.47;1030017;28;19993;-62
2021/03/09 01:58:13;;;;;;;;;;;;;;;-3.91;100.00;95808.25;1032884;28;19914;-62
2021/03/09 01:58:45;;;;;;;;;;;;;;;-3.92;100.00;95803.31;1030706;28;20788;-63
2021/03/09 01:59:16;;;;;;;;;;;;;;;-3.91;100.00;95815.16;1026454;28;19925;-62
2021/03/09 01:59:46;;;;;;;;;;;;;;;-3.92;100.00;95813.56;1025443;28;19929;-63
2021/03/09 02:00:17;;;;;;;;;;;;;;;-3.90;100.00;95806.47;1026956;28;19961;-62
2021/03/09 02:00:47;;;;;;;;;;;;;;;-3.90;100.00;95806.47;1030225;28;20288;-62
2021/03/09 02:01:17;;;;;;;;;;;;;;;-3.92;100.00;95803.31;1030962;28;20029;-63
2021/03/09 02:01:48;;;;;;;;;;;;;;;-3.94;100.00;95810.38;1031829;28;19914;-61
2021/03/09 02:02:18;;;;;;;;;;;;;;;-3.95;100.00;95808.78;1023915;28;19946;-61
2021/03/09 02:02:48;;;;;;;;;;;;;;;-3.98;100.00;95801.44;1023078;29;19915;-62
2021/03/09 02:03:19;;;;;;;;;;;;;;;-4.05;100.00;95802.09;1021211;29;19929;-62
2021/03/09 02:03:50;;;;;;;;;;;;;;;-4.06;100.00;95813.31;1023908;28;19964;-62
2021/03/09 02:04:20;;;;;;;;;;;;;;;-4.04;100.00;95802.91;1028248;28;20486;-62
2021/03/09 02:04:50;;;;;;;;;;;;;;;-3.99;100.00;95803.19;1027872;28;19918;-63
2021/03/09 02:05:21;;;;;;;;;;;;;;;-4.02;100.00;95803.53;1027615;28;19924;-63
2021/03/09 02:05:51;;;;;;;;;;;;;;;-4.05;100.00;95802.09;1033049;28;19972;-63
2021/03/09 02:06:22;;;;;;;;;;;;;;;-4.23;100.00;95770.81;1031823;28;20435;-63
2021/03/09 02:06:52;;;;;;;;;;;;;;;-4.04;100.00;95800.34;1032120;28;19929;-62
2021/03/09 02:07:22;;;;;;;;;;;;;;;-4.07;100.00;95804.03;1032843;28;19929;-63
2021/03/09 02:07:52;;;;;;;;;;;;;;;-4.08;100.00;95802.44;1024566;28;20030;-64
2021/03/09 02:08:23;;;;;;;;;;;;;;;-4.10;100.00;95801.78;1029791;28;19921;-63
2021/03/09 02:08:53;;;;;;;;;;;;;;;-4.10;100.00;95799.25;1032746;28;19972;-62
2021/03/09 02:09:23;;;;;;;;;;;;;;;-4.14;100.00;95799.75;1032421;28;19918;-63
2021/03/09 02:09:54;;;;;;;;;;;;;;;-4.15;100.00;95800.72;1028915;28;19914;-62
2021/03/09 02:10:24;;;;;;;;;;;;;;;-4.18;100.00;95804.41;1026160;28;19921;-61
2021/03/09 02:10:54;;;;;;;;;;;;;;;-4.21;100.00;95799.63;1025263;28;19918;-62
2021/03/09 02:11:30;;;;;;;;;;;;;;;-4.23;100.00;95799.00;1024467;28;19933;-63
2021/03/09 02:12:04;;;;;;;;;;;;;;;-4.24;100.00;95796.63;1028774;28;20016;-63
2021/03/09 02:12:46;;;;;;;;;;;;;;;-4.25;100.00;95802.72;1021413;28;19926;-63
2021/03/09 02:13:35;;;;;;;;;;;;;;;-4.28;100.00;95801.28;1026814;28;19925;-63
2021/03/09 02:14:08;;;;;;;;;;;;;;;-4.28;100.00;95791.81;1025483;28;19936;-63
2021/03/09 02:14:57;;;;;;;;;;;;;;;-4.31;100.00;95797.28;1035576;28;19924;-63
2021/03/09 02:15:28;;;;;;;;;;;;;;;-4.29;100.00;95792.00;1035663;28;20387;-63
2021/03/09 02:15:59;;;;;;;;;;;;;;;-4.29;100.00;95797.13;1028059;28;19921;-63
2021/03/09 02:16:31;;;;;;;;;;;;;;;-4.23;100.00;95796.44;1020291;29;19918;-63
2021/03/09 02:17:01;;;;;;;;;;;;;;;-4.23;100.00;95796.44;1015917;29;20318;-63
2021/03/09 02:17:35;;;;;;;;;;;;;;;-4.25;100.00;95795.81;1015256;29;20010;-62
2021/03/09 02:18:09;;;;;;;;;;;;;;;-4.28;100.00;95796.16;1023832;28;19923;-62
2021/03/09 02:19:05;;;;;;;;;;;;;;;-4.20;100.00;95790.19;1032471;28;20391;-62
2021/03/09 02:19:54;;;;;;;;;;;;;;;-4.12;100.00;95793.50;1032413;28;19918;-62
2021/03/09 02:20:46;;;;;;;;;;;;;;;-4.13;100.00;95791.88;1029489;28;20359;-63
2021/03/09 02:21:36;;;;;;;;;;;;;;;-4.03;100.00;95781.41;1029779;28;19914;-62
2021/03/09 02:22:25;;;;;;;;;;;;;;;-3.98;100.00;95791.19;1029460;28;19954;-60
2021/03/09 02:23:14;;;;;;;;;;;;;;;-3.98;100.00;95788.63;1028900;28;19925;-62
2021/03/09 02:24:01;;;;;;;;;;;;;;;-3.97;100.00;95785.88;1031544;28;20012;-63
2021/03/09 02:24:43;;;;;;;;;;;;;;;-4.04;100.00;95783.19;1028307;28;19917;-63
2021/03/09 02:25:22;;;;;;;;;;;;;;;-4.08;100.00;95792.19;1030972;28;20629;-62
2021/03/09 02:25:54;;;;;;;;;;;;;;;-4.08;100.00;95789.63;1035921;28;19918;-62
2021/03/09 02:26:42;;;;;;;;;;;;;;;-4.11;100.00;95789.97;1031531;28;19924;-63
2021/03/09 02:27:31;;;;;;;;;;;;;;;-4.10;100.00;95791.53;1029064;28;19914;-63
2021/03/09 02:28:07;;;;;;;;;;;;;;;-4.13;100.00;95789.31;1031877;28;19918;-62
2021/03/09 02:28:38;;;;;;;;;;;;;;;-4.17;100.00;95785.50;1027570;28;19918;-62
2021/03/09 02:29:23;;;;;;;;;;;;;;;-4.14;100.00;95780.06;1027613;28;19915;-62
2021/03/09 02:29:56;;;;;;;;;;;;;;;-4.16;100.00;95787.09;1027768;28;19925;-62
2021/03/09 02:30:28;;;;;;;;;;;;;;;-4.14;100.00;95781.81;1024997;28;19914;-61
2021/03/09 02:30:58;;;;;;;;;;;;;;;-4.16;100.00;95781.97;1027610;28;19910;-63
2021/03/09 02:31:29;;;;;;;;;;;;;;;-4.18;100.00;95781.38;1023477;28;20467;-64
2021/03/09 02:31:59;;;;;;;;;;;;;;;-4.19;100.00;95782.34;1024022;28;19920;-62
2021/03/09 02:32:31;;;;;;;;;;;;;;;-4.20;100.00;95780.72;1023622;29;19925;-62
2021/03/09 02:33:06;;;;;;;;;;;;;;;-4.18;100.00;95783.13;1023866;28;20442;-61
2021/03/09 02:33:39;;;;;;;;;;;;;;;-4.23;100.00;95781.06;1023391;29;19921;-64
2021/03/09 02:34:10;;;;;;;;;;;;;;;-4.25;100.00;95783.00;1023779;29;19965;-62
2021/03/09 02:34:43;;;;;;;;;;;;;;;-4.23;100.00;95786.19;1019531;29;19926;-62
2021/03/09 02:35:14;;;;;;;;;;;;;;;-4.25;100.00;95783.00;1021197;28;19919;-62
2021/03/09 02:36:08;;;;;;;;;;;;;;;-4.24;100.00;95782.03;1024022;28;20009;-63
2021/03/09 02:36:38;;;;;;;;;;;;;;;-4.30;100.00;95775.81;1023513;28;20482;-62
2021/03/09 02:37:10;;;;;;;;;;;;;;;-4.33;100.00;95788.16;1023793;29;20054;-62
2021/03/09 02:37:40;;;;;;;;;;;;;;;-4.34;100.00;95779.69;1026552;28;19922;-61
2021/03/09 02:38:11;;;;;;;;;;;;;;;-4.36;100.00;95779.06;1026310;28;19914;-62
2021/03/09 02:38:42;;;;;;;;;;;;;;;-4.37;100.00;95779.22;1031568;28;19910;-62
2021/03/09 02:39:12;;;;;;;;;;;;;;;-4.36;100.00;95778.25;1027628;28;20315;-63
2021/03/09 02:39:44;;;;;;;;;;;;;;;-4.35;100.00;95777.31;1023738;28;19918;-62
2021/03/09 02:40:14;;;;;;;;;;;;;;;-4.36;100.00;95781.63;1022774;28;20013;-63
2021/03/09 02:40:44;;;;;;;;;;;;;;;-4.38;100.00;95782.75;1019354;29;19915;-62
2021/03/09 02:41:15;;;;;;;;;;;;;;;-4.41;100.00;95776.22;1019841;29;19915;-62
2021/03/09 02:41:46;;;;;;;;;;;;;;;-4.41;100.00;95777.97;1019413;29;19935;-62